Time;durP1;ratioP1;P1;durP2;ratioP2;P2;SDS_P1;SDS_P2;PMS_P1;PMS_P2;Temp;Humidity;BMP_temperature;BMP_pressure;BME280_temperature;BME280_humidity;BME280_pressure;Samples;Min_cycle;Max_cycle;Signal;HPM_P1;HPM_P2
2021/08/03 00:01:36;;;;;;;;;;;27.10;94.00;;;;;;5126584;28;20189;-45
2021/08/03 00:04:13;;;;;;;;;;;27.10;94.00;;;;;;5126721;28;19908;-51
2021/08/03 00:06:52;;;;;;;;;;;27.10;94.00;;;;;;5126859;28;19904;-46
2021/08/03 00:09:19;;;;;;;;;;;27.00;93.90;;;;;;5126775;28;19907;-52
2021/08/03 00:11:46;;;;;;;;;;;27.10;94.00;;;;;;5126335;28;19907;-52
2021/08/03 00:14:12;;;;;;;;;;;27.00;94.00;;;;;;5108126;28;19914;-47
2021/08/03 00:16:40;;;;;;;;;;;27.00;94.10;;;;;;5126503;28;19907;-46
2021/08/03 00:19:07;;;;;;;;;;;27.00;94.10;;;;;;5108202;28;19912;-45
2021/08/03 00:21:34;;;;;;;;;;;27.00;94.10;;;;;;5107953;28;20081;-49
2021/08/03 00:24:00;;;;;;;;;;;27.00;94.20;;;;;;5126453;28;19942;-48
2021/08/03 00:26:27;;;;;;;;;;;27.00;94.20;;;;;;5108095;28;19911;-44
2021/08/03 00:28:53;;;;;;;;;;;27.00;94.20;;;;;;5126443;28;19908;-45
2021/08/03 00:31:21;;;;;;;;;;;27.00;94.20;;;;;;5108380;28;20056;-48
2021/08/03 00:33:48;;;;;;;;;;;27.00;94.20;;;;;;5126773;28;19908;-49
2021/08/03 00:36:15;;;;;;;;;;;27.00;94.10;;;;;;5126033;28;20191;-48
2021/08/03 00:38:41;;;;;;;;;;;26.90;93.90;;;;;;5126686;28;19908;-47
2021/08/03 00:41:12;;;;;;;;;;;26.90;93.90;;;;;;5125736;28;19939;-45
2021/08/03 00:43:39;;;;;;;;;;;26.90;93.90;;;;;;5108268;28;19907;-44
2021/08/03 00:46:05;;;;;;;;;;;26.90;93.50;;;;;;5126624;28;19907;-43
2021/08/03 00:48:31;;;;;;;;;;;27.00;93.50;;;;;;5108211;28;19908;-47
2021/08/03 00:50:57;;;;;;;;;;;27.00;93.20;;;;;;5125605;28;19908;-47
2021/08/03 00:53:23;;;;;;;;;;;27.00;93.10;;;;;;5126402;28;20204;-46
2021/08/03 00:55:50;;;;;;;;;;;27.00;92.80;;;;;;5125174;28;19939;-41
2021/08/03 00:58:16;;;;;;;;;;;27.00;92.70;;;;;;5099282;28;19919;-41
2021/08/03 01:00:42;;;;;;;;;;;26.90;92.50;;;;;;5115566;28;19903;-41
2021/08/03 01:03:08;;;;;;;;;;;26.90;92.50;;;;;;5105291;28;20078;-41
2021/08/03 01:05:38;;;;;;;;;;;26.90;92.50;;;;;;5125211;28;19904;-42
2021/08/03 01:08:14;;;;;;;;;;;26.90;92.40;;;;;;5107479;28;19952;-44
2021/08/03 01:10:49;;;;;;;;;;;26.90;92.60;;;;;;5114625;28;19943;-41
2021/08/03 01:13:34;;;;;;;;;;;26.90;93.20;;;;;;5116579;28;19919;-41
2021/08/03 01:16:19;;;;;;;;;;;26.90;93.60;;;;;;5114420;28;19904;-46
2021/08/03 01:18:58;;;;;;;;;;;26.90;94.10;;;;;;5115498;28;19919;-44
2021/08/03 01:21:42;;;;;;;;;;;26.80;94.30;;;;;;5114802;28;19908;-42
2021/08/03 01:24:31;;;;;;;;;;;26.80;94.40;;;;;;5114884;28;19943;-42
2021/08/03 01:27:09;;;;;;;;;;;26.80;94.50;;;;;;5116383;28;19912;-41
2021/08/03 01:29:39;;;;;;;;;;;26.80;94.50;;;;;;5095946;28;20208;-41
2021/08/03 01:32:07;;;;;;;;;;;26.80;94.50;;;;;;5115478;28;20192;-45
2021/08/03 01:34:37;;;;;;;;;;;26.80;94.60;;;;;;5124019;28;19953;-42
2021/08/03 01:37:04;;;;;;;;;;;26.80;94.60;;;;;;5124710;28;20088;-42
2021/08/03 01:39:34;;;;;;;;;;;26.80;94.50;;;;;;5125265;28;19904;-42
2021/08/03 01:42:01;;;;;;;;;;;26.80;94.50;;;;;;5113867;28;20184;-41
2021/08/03 01:44:27;;;;;;;;;;;26.80;94.60;;;;;;5098251;28;19904;-41
2021/08/03 01:46:57;;;;;;;;;;;26.70;94.60;;;;;;5096039;28;19987;-43
2021/08/03 01:49:23;;;;;;;;;;;26.70;94.70;;;;;;5115082;28;19935;-44
2021/08/03 01:51:50;;;;;;;;;;;26.70;94.70;;;;;;5122870;28;19920;-40
2021/08/03 01:54:20;;;;;;;;;;;26.70;94.80;;;;;;5123317;28;20198;-42
2021/08/03 01:56:48;;;;;;;;;;;26.60;94.80;;;;;;5124557;28;19908;-44
2021/08/03 01:59:14;;;;;;;;;;;26.70;94.80;;;;;;5106114;28;19969;-44
2021/08/03 02:01:41;;;;;;;;;;;26.60;94.70;;;;;;5095068;28;19908;-43
2021/08/03 02:04:07;;;;;;;;;;;26.60;94.80;;;;;;5114522;28;19982;-41
2021/08/03 02:06:36;;;;;;;;;;;26.60;94.80;;;;;;5115094;28;19904;-41
2021/08/03 02:09:02;;;;;;;;;;;26.60;94.70;;;;;;5113573;28;19913;-42
2021/08/03 02:11:30;;;;;;;;;;;26.60;94.70;;;;;;5096058;28;19911;-48
2021/08/03 02:13:59;;;;;;;;;;;26.50;94.70;;;;;;5098189;28;20089;-42
2021/08/03 02:16:25;;;;;;;;;;;26.60;94.70;;;;;;5124108;28;20111;-41
2021/08/03 02:18:52;;;;;;;;;;;26.50;94.60;;;;;;5124902;28;19939;-44
2021/08/03 02:21:22;;;;;;;;;;;26.50;94.70;;;;;;5124491;28;19947;-43
2021/08/03 02:23:48;;;;;;;;;;;26.50;94.60;;;;;;5124737;28;20183;-43
2021/08/03 02:26:15;;;;;;;;;;;26.50;94.60;;;;;;5124435;28;20247;-43
2021/08/03 02:28:41;;;;;;;;;;;26.50;94.60;;;;;;5115550;28;19918;-43
2021/08/03 02:31:12;;;;;;;;;;;26.50;94.60;;;;;;5113814;28;19916;-45
2021/08/03 02:33:42;;;;;;;;;;;26.50;94.60;;;;;;5113358;28;19905;-45
2021/08/03 02:36:11;;;;;;;;;;;26.50;94.60;;;;;;5116858;28;19957;-42
2021/08/03 02:38:39;;;;;;;;;;;26.40;94.60;;;;;;5119574;28;20196;-51
2021/08/03 02:41:06;;;;;;;;;;;26.40;94.70;;;;;;5118491;28;19912;-41
2021/08/03 02:43:33;;;;;;;;;;;26.40;94.70;;;;;;5106712;28;19911;-41
2021/08/03 02:46:02;;;;;;;;;;;26.40;94.60;;;;;;5128025;28;19957;-44
2021/08/03 02:48:29;;;;;;;;;;;26.40;94.60;;;;;;5128476;28;19904;-44
2021/08/03 02:50:56;;;;;;;;;;;26.40;94.60;;;;;;5127636;28;19987;-41
2021/08/03 02:53:28;;;;;;;;;;;26.30;94.60;;;;;;5107055;28;19912;-43
2021/08/03 02:55:57;;;;;;;;;;;26.30;94.60;;;;;;5127939;28;19907;-45
2021/08/03 02:58:32;;;;;;;;;;;26.30;94.70;;;;;;5128287;28;19984;-43
2021/08/03 03:01:00;;;;;;;;;;;26.30;94.60;;;;;;5127819;28;20022;-45
2021/08/03 03:03:27;;;;;;;;;;;26.30;94.50;;;;;;5119216;28;19915;-46
2021/08/03 03:05:59;;;;;;;;;;;26.30;94.40;;;;;;5117685;28;19979;-44
2021/08/03 03:08:27;;;;;;;;;;;26.40;94.50;;;;;;5092137;28;19942;-46
2021/08/03 03:10:55;;;;;;;;;;;26.30;94.50;;;;;;5088756;28;19912;-44
2021/08/03 03:13:24;;;;;;;;;;;26.30;94.50;;;;;;5089483;28;19904;-49
2021/08/03 03:15:52;;;;;;;;;;;26.40;94.50;;;;;;5107346;28;19912;-48
2021/08/03 03:18:18;;;;;;;;;;;26.40;94.60;;;;;;5107575;28;19967;-47
2021/08/03 03:20:46;;;;;;;;;;;26.40;94.60;;;;;;5108102;27;19919;-45
2021/08/03 03:23:13;;;;;;;;;;;26.40;94.70;;;;;;5107769;28;19950;-44
2021/08/03 03:25:39;;;;;;;;;;;26.40;94.60;;;;;;5114231;28;20104;-45
2021/08/03 03:28:06;;;;;;;;;;;26.50;94.70;;;;;;5128033;28;19903;-46
2021/08/03 03:30:33;;;;;;;;;;;26.50;94.70;;;;;;5109343;28;19953;-48
2021/08/03 03:33:04;;;;;;;;;;;26.50;94.70;;;;;;5127991;28;19945;-43
2021/08/03 03:35:32;;;;;;;;;;;26.50;94.70;;;;;;5109283;28;19934;-45
2021/08/03 03:38:01;;;;;;;;;;;26.50;94.70;;;;;;5127700;28;19904;-43
2021/08/03 03:40:28;;;;;;;;;;;26.50;94.70;;;;;;5127119;28;19936;-44
2021/08/03 03:42:58;;;;;;;;;;;26.50;94.70;;;;;;5127803;28;20224;-48
2021/08/03 03:45:24;;;;;;;;;;;26.50;94.70;;;;;;5127188;28;19912;-45
2021/08/03 03:47:56;;;;;;;;;;;26.50;94.80;;;;;;5126717;28;20152;-43
2021/08/03 03:50:34;;;;;;;;;;;26.50;94.80;;;;;;5127046;28;19912;-44
2021/08/03 03:53:05;;;;;;;;;;;26.50;94.80;;;;;;5127364;28;19982;-45
2021/08/03 03:55:31;;;;;;;;;;;26.50;94.80;;;;;;5108814;28;19922;-47
2021/08/03 03:57:58;;;;;;;;;;;26.50;94.80;;;;;;5108907;28;19907;-49
2021/08/03 04:00:25;;;;;;;;;;;26.50;94.80;;;;;;5106376;28;19912;-42
2021/08/03 04:02:51;;;;;;;;;;;26.50;94.80;;;;;;5107314;28;19919;-44
2021/08/03 04:05:18;;;;;;;;;;;26.50;94.80;;;;;;5125317;28;20285;-47
2021/08/03 04:07:50;;;;;;;;;;;26.50;94.80;;;;;;5125704;28;19954;-44
2021/08/03 04:10:20;;;;;;;;;;;26.50;94.70;;;;;;5115066;28;20130;-47
2021/08/03 04:12:47;;;;;;;;;;;26.50;94.80;;;;;;5125640;28;19930;-48
2021/08/03 04:15:14;;;;;;;;;;;26.40;94.70;;;;;;5127602;27;20170;-43
2021/08/03 04:17:40;;;;;;;;;;;26.50;94.80;;;;;;5126630;28;19908;-43
2021/08/03 04:20:07;;;;;;;;;;;26.50;94.80;;;;;;5126750;28;19907;-46
2021/08/03 04:22:33;;;;;;;;;;;26.40;94.70;;;;;;5126501;28;19912;-43
2021/08/03 04:24:59;;;;;;;;;;;26.40;94.70;;;;;;5126472;28;19907;-43
2021/08/03 04:27:25;;;;;;;;;;;26.40;94.70;;;;;;5126449;28;20088;-49
2021/08/03 04:29:51;;;;;;;;;;;26.40;94.70;;;;;;5126114;28;19935;-45
2021/08/03 04:32:17;;;;;;;;;;;26.40;94.70;;;;;;5126384;28;19954;-45
2021/08/03 04:34:43;;;;;;;;;;;26.40;94.70;;;;;;5126227;28;19908;-48
2021/08/03 04:37:10;;;;;;;;;;;26.40;94.50;;;;;;5126218;28;19943;-46
2021/08/03 04:39:36;;;;;;;;;;;26.40;94.40;;;;;;5125969;28;19908;-44
2021/08/03 04:42:03;;;;;;;;;;;26.40;94.30;;;;;;5107891;28;20136;-46
2021/08/03 04:44:29;;;;;;;;;;;26.40;94.20;;;;;;5125412;28;19908;-47
2021/08/03 04:46:55;;;;;;;;;;;26.40;94.10;;;;;;5126041;28;19915;-49
2021/08/03 04:49:21;;;;;;;;;;;26.40;94.10;;;;;;5126013;28;19908;-46
2021/08/03 04:51:48;;;;;;;;;;;26.40;94.10;;;;;;5126000;28;19916;-45
2021/08/03 04:54:14;;;;;;;;;;;26.40;94.10;;;;;;5126135;28;19988;-48
2021/08/03 04:56:40;;;;;;;;;;;26.30;94.10;;;;;;5125912;28;19904;-44
2021/08/03 04:59:06;;;;;;;;;;;26.30;94.20;;;;;;5124840;28;19934;-42
2021/08/03 05:01:33;;;;;;;;;;;26.30;94.40;;;;;;5125532;28;19908;-45
2021/08/03 05:04:00;;;;;;;;;;;26.30;94.20;;;;;;5125822;28;19918;-44
2021/08/03 05:06:27;;;;;;;;;;;26.30;94.20;;;;;;5125293;28;19903;-47
2021/08/03 05:08:53;;;;;;;;;;;26.40;94.30;;;;;;5126124;28;19975;-43
2021/08/03 05:11:19;;;;;;;;;;;26.30;94.30;;;;;;5125747;28;19908;-43
2021/08/03 05:13:45;;;;;;;;;;;26.30;94.20;;;;;;5126030;28;19908;-45
2021/08/03 05:16:11;;;;;;;;;;;26.30;94.30;;;;;;5125216;28;19915;-45
2021/08/03 05:18:37;;;;;;;;;;;26.30;94.30;;;;;;5125821;28;19939;-45
2021/08/03 05:21:04;;;;;;;;;;;26.30;94.30;;;;;;5125336;28;19915;-45
2021/08/03 05:23:30;;;;;;;;;;;26.30;94.30;;;;;;5125147;28;20096;-45
2021/08/03 05:25:56;;;;;;;;;;;26.30;94.40;;;;;;5125555;28;19962;-47
2021/08/03 05:28:22;;;;;;;;;;;26.30;94.50;;;;;;5125772;28;19943;-45
2021/08/03 05:30:49;;;;;;;;;;;26.30;94.40;;;;;;5125190;28;19953;-48
2021/08/03 05:33:15;;;;;;;;;;;26.30;94.40;;;;;;5125511;28;19914;-49
2021/08/03 05:35:42;;;;;;;;;;;26.30;94.50;;;;;;5107139;28;19974;-46
2021/08/03 05:38:08;;;;;;;;;;;26.30;94.50;;;;;;5125478;28;19908;-47
2021/08/03 05:40:35;;;;;;;;;;;26.30;94.50;;;;;;5124897;28;19907;-48
2021/08/03 05:43:01;;;;;;;;;;;26.30;94.60;;;;;;5125303;28;19973;-45
2021/08/03 05:45:27;;;;;;;;;;;26.30;94.60;;;;;;5124984;28;19915;-47
2021/08/03 05:47:54;;;;;;;;;;;26.30;94.60;;;;;;5116762;28;19935;-43
2021/08/03 05:50:20;;;;;;;;;;;26.30;94.60;;;;;;5125049;28;19975;-44
2021/08/03 05:52:46;;;;;;;;;;;26.30;94.50;;;;;;5125106;28;20187;-45
2021/08/03 05:55:12;;;;;;;;;;;26.20;94.50;;;;;;5124798;28;19970;-43
2021/08/03 05:57:38;;;;;;;;;;;26.30;94.50;;;;;;5106852;28;19935;-49
2021/08/03 06:00:05;;;;;;;;;;;26.30;94.60;;;;;;5124968;28;19908;-44
2021/08/03 06:02:31;;;;;;;;;;;26.20;94.50;;;;;;5124863;28;19912;-50
2021/08/03 06:04:59;;;;;;;;;;;26.20;94.50;;;;;;5124963;28;19908;-48
2021/08/03 06:07:27;;;;;;;;;;;26.20;94.50;;;;;;5124967;28;19975;-48
2021/08/03 06:09:57;;;;;;;;;;;26.20;94.60;;;;;;5125462;28;19946;-45
2021/08/03 06:12:25;;;;;;;;;;;26.20;94.60;;;;;;5129102;28;20088;-45
2021/08/03 06:14:53;;;;;;;;;;;26.20;94.60;;;;;;5129141;28;19908;-45
2021/08/03 06:17:20;;;;;;;;;;;26.20;94.60;;;;;;5129004;28;20092;-44
2021/08/03 06:19:48;;;;;;;;;;;26.20;94.60;;;;;;5129040;28;19915;-45
2021/08/03 06:22:15;;;;;;;;;;;26.20;94.70;;;;;;5128955;28;19911;-48
2021/08/03 06:24:42;;;;;;;;;;;26.20;94.60;;;;;;5128711;28;19915;-43
2021/08/03 06:27:09;;;;;;;;;;;26.20;94.60;;;;;;5128844;28;19915;-48
2021/08/03 06:29:37;;;;;;;;;;;26.10;94.60;;;;;;5128907;28;19908;-47
2021/08/03 06:32:03;;;;;;;;;;;26.20;94.70;;;;;;5128713;28;19908;-50
2021/08/03 06:34:30;;;;;;;;;;;26.20;94.70;;;;;;5128643;28;19907;-47
2021/08/03 06:36:56;;;;;;;;;;;26.10;94.60;;;;;;5128757;28;19914;-46
2021/08/03 06:39:22;;;;;;;;;;;26.10;94.70;;;;;;5128460;28;19908;-44
2021/08/03 06:41:49;;;;;;;;;;;26.20;94.70;;;;;;5128369;28;19980;-42
2021/08/03 06:44:22;;;;;;;;;;;26.20;94.70;;;;;;5128503;28;19908;-44
2021/08/03 06:46:53;;;;;;;;;;;26.10;94.70;;;;;;5128336;28;20192;-43
2021/08/03 06:49:21;;;;;;;;;;;26.10;94.70;;;;;;5128525;28;19950;-47
2021/08/03 06:51:47;;;;;;;;;;;26.10;94.70;;;;;;5128249;28;19923;-45
2021/08/03 06:54:14;;;;;;;;;;;26.10;94.70;;;;;;5128341;28;19912;-45
2021/08/03 06:56:50;;;;;;;;;;;26.10;94.80;;;;;;5126624;28;20188;-50
2021/08/03 06:59:18;;;;;;;;;;;26.10;94.80;;;;;;5122914;28;19953;-49
2021/08/03 07:01:44;;;;;;;;;;;26.10;94.80;;;;;;5128105;28;20006;-47
2021/08/03 07:04:11;;;;;;;;;;;26.10;94.80;;;;;;5128137;28;19912;-46
2021/08/03 07:06:39;;;;;;;;;;;26.10;94.80;;;;;;5127874;28;19908;-43
2021/08/03 07:09:05;;;;;;;;;;;26.10;94.80;;;;;;5127691;28;19969;-45
2021/08/03 07:11:34;;;;;;;;;;;26.10;94.80;;;;;;5127883;28;19935;-46
2021/08/03 07:14:01;;;;;;;;;;;26.10;94.80;;;;;;5127849;28;19908;-48
2021/08/03 07:16:28;;;;;;;;;;;26.10;94.90;;;;;;5127869;28;20366;-45
2021/08/03 07:18:56;;;;;;;;;;;26.10;94.90;;;;;;5127466;28;19944;-49
2021/08/03 07:21:26;;;;;;;;;;;26.10;94.90;;;;;;5108549;28;19935;-48
2021/08/03 07:23:56;;;;;;;;;;;26.10;94.90;;;;;;5127671;28;19946;-46
2021/08/03 07:26:24;;;;;;;;;;;26.00;94.90;;;;;;5127692;28;19908;-47
2021/08/03 07:28:50;;;;;;;;;;;26.00;94.90;;;;;;5127976;28;19914;-44
2021/08/03 07:31:16;;;;;;;;;;;26.00;94.90;;;;;;5127506;28;19911;-45
2021/08/03 07:33:42;;;;;;;;;;;26.00;94.90;;;;;;5127984;28;19915;-46
2021/08/03 07:36:09;;;;;;;;;;;26.00;94.90;;;;;;5127389;28;19915;-46
2021/08/03 07:38:35;;;;;;;;;;;26.00;95.10;;;;;;5127848;28;19907;-45
2021/08/03 07:41:02;;;;;;;;;;;26.00;94.90;;;;;;5127476;28;19969;-45
2021/08/03 07:43:28;;;;;;;;;;;26.00;94.80;;;;;;5127585;28;19912;-44
2021/08/03 07:45:54;;;;;;;;;;;26.00;94.80;;;;;;5127255;28;20081;-46
2021/08/03 07:48:20;;;;;;;;;;;26.00;94.80;;;;;;5127697;28;20093;-43
2021/08/03 07:50:46;;;;;;;;;;;26.00;94.80;;;;;;5127236;28;19908;-47
2021/08/03 07:53:13;;;;;;;;;;;26.00;94.80;;;;;;5126894;28;19994;-45
2021/08/03 07:55:39;;;;;;;;;;;26.00;94.70;;;;;;5127050;28;19935;-48
2021/08/03 07:58:05;;;;;;;;;;;26.00;94.70;;;;;;5127420;28;19968;-49
2021/08/03 08:00:32;;;;;;;;;;;26.00;94.80;;;;;;5126853;28;20216;-45
2021/08/03 08:02:58;;;;;;;;;;;26.00;94.70;;;;;;5127150;28;19912;-44
2021/08/03 08:05:24;;;;;;;;;;;26.00;94.70;;;;;;5126887;28;19908;-44
2021/08/03 08:07:56;;;;;;;;;;;26.00;94.70;;;;;;5126967;28;19908;-43
2021/08/03 08:10:23;;;;;;;;;;;26.00;94.70;;;;;;5126845;28;20103;-43
2021/08/03 08:12:49;;;;;;;;;;;26.00;94.70;;;;;;5127055;28;19908;-42
2021/08/03 08:15:15;;;;;;;;;;;26.00;94.70;;;;;;5126572;28;20251;-45
2021/08/03 08:17:42;;;;;;;;;;;26.00;94.70;;;;;;5126852;28;20065;-47
2021/08/03 08:20:12;;;;;;;;;;;25.90;94.60;;;;;;5126676;28;20138;-44
2021/08/03 08:22:40;;;;;;;;;;;26.00;94.60;;;;;;5126675;28;20184;-47
2021/08/03 08:25:10;;;;;;;;;;;26.00;94.60;;;;;;5126653;28;19974;-46
2021/08/03 08:27:40;;;;;;;;;;;26.00;94.60;;;;;;5126725;28;19908;-43
2021/08/03 08:30:07;;;;;;;;;;;25.90;94.60;;;;;;5126425;28;19939;-46
2021/08/03 08:32:34;;;;;;;;;;;26.00;94.60;;;;;;5126374;28;19975;-43
2021/08/03 08:35:00;;;;;;;;;;;26.00;94.60;;;;;;5126377;28;20168;-44
2021/08/03 08:37:26;;;;;;;;;;;25.90;94.60;;;;;;5126291;28;19907;-51
2021/08/03 08:39:53;;;;;;;;;;;25.90;94.70;;;;;;5126181;28;19908;-47
2021/08/03 08:42:19;;;;;;;;;;;25.90;94.70;;;;;;5126122;28;20106;-47
2021/08/03 08:44:47;;;;;;;;;;;25.90;94.70;;;;;;5125979;28;19914;-48
2021/08/03 08:47:14;;;;;;;;;;;25.90;94.90;;;;;;5126143;28;19907;-47
2021/08/03 08:49:40;;;;;;;;;;;25.90;94.90;;;;;;5126057;28;19907;-42
2021/08/03 08:52:07;;;;;;;;;;;25.90;95.00;;;;;;5125781;28;20188;-46
2021/08/03 08:54:33;;;;;;;;;;;25.90;95.10;;;;;;5126138;28;19916;-46
2021/08/03 08:57:02;;;;;;;;;;;25.90;95.20;;;;;;5125966;28;20087;-49
2021/08/03 08:59:28;;;;;;;;;;;25.90;95.10;;;;;;5125727;28;20183;-43
2021/08/03 09:01:54;;;;;;;;;;;25.90;95.10;;;;;;5125861;28;19918;-46
2021/08/03 09:04:23;;;;;;;;;;;25.90;95.10;;;;;;5125696;28;19908;-43
2021/08/03 09:07:08;;;;;;;;;;;25.90;95.20;;;;;;5125622;28;19908;-52
2021/08/03 09:09:45;;;;;;;;;;;25.90;95.20;;;;;;5125595;28;19914;-45
2021/08/03 09:12:12;;;;;;;;;;;25.80;95.30;;;;;;5125525;28;19908;-42
2021/08/03 09:14:42;;;;;;;;;;;25.90;95.30;;;;;;5125587;28;19912;-42
2021/08/03 09:17:09;;;;;;;;;;;25.80;95.30;;;;;;5125436;28;19915;-42
2021/08/03 09:19:39;;;;;;;;;;;25.80;95.50;;;;;;5125225;28;20231;-42
2021/08/03 09:22:19;;;;;;;;;;;25.80;95.30;;;;;;5125490;28;20055;-42
2021/08/03 09:24:47;;;;;;;;;;;25.80;95.30;;;;;;5125123;28;20210;-42
2021/08/03 09:27:33;;;;;;;;;;;25.80;95.40;;;;;;5125251;28;19930;-43
2021/08/03 09:29:59;;;;;;;;;;;25.80;95.30;;;;;;5124707;28;19911;-42
2021/08/03 09:32:29;;;;;;;;;;;25.80;95.40;;;;;;5125432;28;19961;-43
2021/08/03 09:35:14;;;;;;;;;;;25.80;95.40;;;;;;5125162;28;19975;-42
2021/08/03 09:37:41;;;;;;;;;;;25.80;95.40;;;;;;5125253;28;20230;-41
2021/08/03 09:40:18;;;;;;;;;;;25.70;95.60;;;;;;5125054;28;19914;-47
2021/08/03 09:42:44;;;;;;;;;;;25.70;95.70;;;;;;5125066;28;19912;-42
2021/08/03 09:45:10;;;;;;;;;;;25.70;95.40;;;;;;5124435;28;19939;-42
2021/08/03 09:47:37;;;;;;;;;;;25.80;95.50;;;;;;5125234;28;19914;-47
2021/08/03 09:50:06;;;;;;;;;;;25.70;95.40;;;;;;5124819;28;19914;-43
2021/08/03 09:52:36;;;;;;;;;;;25.70;95.50;;;;;;5125043;28;19927;-42
2021/08/03 09:55:15;;;;;;;;;;;25.70;95.50;;;;;;5124800;28;19907;-42
2021/08/03 09:57:42;;;;;;;;;;;25.70;95.50;;;;;;5125113;28;19919;-42
2021/08/03 10:00:37;;;;;;;;;;;25.70;95.50;;;;;;5125006;28;20014;-42
2021/08/03 10:03:04;;;;;;;;;;;25.70;95.50;;;;;;5125147;28;19916;-42
2021/08/03 10:05:30;;;;;;;;;;;25.70;95.50;;;;;;5124658;28;19960;-44
2021/08/03 10:07:57;;;;;;;;;;;25.70;95.50;;;;;;5124874;28;19919;-42
2021/08/03 10:10:23;;;;;;;;;;;25.70;95.50;;;;;;5124808;28;19911;-51
2021/08/03 10:12:50;;;;;;;;;;;25.70;95.50;;;;;;5124908;28;20207;-42
2021/08/03 10:15:16;;;;;;;;;;;25.70;95.50;;;;;;5124512;28;19945;-47
2021/08/03 10:17:42;;;;;;;;;;;25.70;95.50;;;;;;5124709;28;19943;-42
2021/08/03 10:20:10;;;;;;;;;;;25.70;95.40;;;;;;5124640;28;19904;-42
2021/08/03 10:22:42;;;;;;;;;;;25.70;95.50;;;;;;5124153;28;20111;-43
2021/08/03 10:25:10;;;;;;;;;;;25.70;95.40;;;;;;5124614;28;20211;-43
2021/08/03 10:27:46;;;;;;;;;;;25.70;95.30;;;;;;5124597;28;19912;-42
2021/08/03 10:30:28;;;;;;;;;;;25.70;95.30;;;;;;5124299;28;19904;-42
2021/08/03 10:32:59;;;;;;;;;;;25.70;95.30;;;;;;5124659;28;19970;-46
2021/08/03 10:35:54;;;;;;;;;;;25.70;95.30;;;;;;5124409;28;19940;-44
2021/08/03 10:38:21;;;;;;;;;;;25.60;95.20;;;;;;5124684;28;19944;-51
2021/08/03 10:40:48;;;;;;;;;;;25.60;95.20;;;;;;5124403;28;19904;-43
2021/08/03 10:43:14;;;;;;;;;;;25.60;95.10;;;;;;5124513;28;19916;-45
2021/08/03 10:45:40;;;;;;;;;;;25.70;95.10;;;;;;5124108;28;19911;-46
2021/08/03 10:48:07;;;;;;;;;;;25.60;95.00;;;;;;5124688;28;19911;-46
2021/08/03 10:50:33;;;;;;;;;;;25.60;94.90;;;;;;5124216;28;19942;-45
2021/08/03 10:53:02;;;;;;;;;;;25.60;95.00;;;;;;5124348;28;19920;-50
2021/08/03 10:55:35;;;;;;;;;;;25.60;94.90;;;;;;5124096;28;20247;-46
2021/08/03 10:58:21;;;;;;;;;;;25.60;94.90;;;;;;5128331;28;19919;-43
2021/08/03 11:00:48;;;;;;;;;;;25.60;94.90;;;;;;5127243;28;19974;-46
2021/08/03 11:03:35;;;;;;;;;;;25.60;94.80;;;;;;5128326;28;20200;-50
2021/08/03 11:06:04;;;;;;;;;;;25.60;94.80;;;;;;5127913;28;19964;-46
2021/08/03 11:08:32;;;;;;;;;;;25.50;94.80;;;;;;5128021;28;20201;-47
2021/08/03 11:11:05;;;;;;;;;;;25.50;94.80;;;;;;5127794;28;19939;-45
2021/08/03 11:13:38;;;;;;;;;;;25.50;94.80;;;;;;5128127;28;19923;-49
2021/08/03 11:16:09;;;;;;;;;;;25.50;94.80;;;;;;5127273;28;20212;-49
2021/08/03 11:18:40;;;;;;;;;;;25.50;94.90;;;;;;5128008;28;19919;-48
2021/08/03 11:21:07;;;;;;;;;;;25.50;94.90;;;;;;5127683;28;19945;-43
2021/08/03 11:23:51;;;;;;;;;;;25.50;94.90;;;;;;5127871;28;19923;-45
2021/08/03 11:26:19;;;;;;;;;;;25.50;94.90;;;;;;5127468;28;19946;-50
2021/08/03 11:28:58;;;;;;;;;;;25.50;94.90;;;;;;5127901;28;19918;-47
2021/08/03 11:31:41;;;;;;;;;;;25.50;94.90;;;;;;5127504;28;19970;-47
2021/08/03 11:34:08;;;;;;;;;;;25.50;94.90;;;;;;5127917;28;19953;-49
2021/08/03 11:36:38;;;;;;;;;;;25.50;94.90;;;;;;5109671;28;19926;-51
2021/08/03 11:39:20;;;;;;;;;;;25.50;95.00;;;;;;5127440;28;19903;-45
2021/08/03 11:41:47;;;;;;;;;;;25.50;95.00;;;;;;5127357;28;20068;-50
2021/08/03 11:44:15;;;;;;;;;;;25.50;95.10;;;;;;5127466;28;19903;-46
2021/08/03 11:46:43;;;;;;;;;;;25.50;95.20;;;;;;5127512;28;19908;-46
2021/08/03 11:49:10;;;;;;;;;;;25.50;95.20;;;;;;5127496;28;19904;-44
2021/08/03 11:51:49;;;;;;;;;;;25.60;95.20;;;;;;5127115;28;19957;-45
2021/08/03 11:54:15;;;;;;;;;;;25.60;95.20;;;;;;5127292;28;19923;-46
2021/08/03 11:56:42;;;;;;;;;;;25.60;95.20;;;;;;5127250;28;19942;-49
2021/08/03 11:59:09;;;;;;;;;;;25.60;95.20;;;;;;5127341;28;19946;-46
2021/08/03 12:01:51;;;;;;;;;;;25.70;95.50;;;;;;5127101;28;19912;-50
2021/08/03 12:04:23;;;;;;;;;;;25.70;95.10;;;;;;5126930;28;20103;-48
2021/08/03 12:06:51;;;;;;;;;;;25.70;95.10;;;;;;5126965;28;19908;-49
2021/08/03 12:09:21;;;;;;;;;;;25.70;95.10;;;;;;5126367;28;19935;-46
2021/08/03 12:11:59;;;;;;;;;;;25.80;95.20;;;;;;5126839;28;19904;-44
2021/08/03 12:14:32;;;;;;;;;;;25.80;95.20;;;;;;5127520;28;19908;-46
2021/08/03 12:16:58;;;;;;;;;;;25.80;95.20;;;;;;5127196;28;19949;-45
2021/08/03 12:19:27;;;;;;;;;;;25.90;95.30;;;;;;5126726;28;19908;-49
2021/08/03 12:21:54;;;;;;;;;;;25.90;95.10;;;;;;5126746;28;19912;-46
2021/08/03 12:24:20;;;;;;;;;;;25.90;95.10;;;;;;5126810;28;19970;-49
2021/08/03 12:26:47;;;;;;;;;;;25.90;95.10;;;;;;5126902;28;19904;-48
2021/08/03 12:29:13;;;;;;;;;;;25.90;95.20;;;;;;5126634;28;19908;-45
2021/08/03 12:31:41;;;;;;;;;;;25.90;95.20;;;;;;5126654;28;19911;-46
2021/08/03 12:34:08;;;;;;;;;;;25.80;95.20;;;;;;5126265;28;19908;-44
2021/08/03 12:37:00;;;;;;;;;;;25.80;95.30;;;;;;5126441;28;19931;-48
2021/08/03 12:39:33;;;;;;;;;;;25.80;95.30;;;;;;5121638;28;20219;-43
2021/08/03 12:42:01;;;;;;;;;;;25.80;95.30;;;;;;5126287;28;20256;-43
2021/08/03 12:44:28;;;;;;;;;;;25.80;95.40;;;;;;5125698;28;19907;-43
2021/08/03 12:46:54;;;;;;;;;;;25.80;95.60;;;;;;5126115;28;20026;-48
2021/08/03 12:49:36;;;;;;;;;;;25.80;95.60;;;;;;5126171;28;20160;-47
2021/08/03 12:52:13;;;;;;;;;;;25.80;95.60;;;;;;5125828;28;19955;-49
2021/08/03 13:26:23;;;;;;;;;;;25.80;95.40;;;;;;5101617;28;19947;-38
2021/08/03 13:28:49;;;;;;;;;;;26.30;94.70;;;;;;5101154;28;19930;-40
2021/08/03 13:31:15;;;;;;;;;;;26.20;94.60;;;;;;5101305;28;19935;-39
2021/08/03 13:33:42;;;;;;;;;;;26.20;94.80;;;;;;5101567;28;19910;-46
2021/08/03 13:36:08;;;;;;;;;;;26.10;94.90;;;;;;5101564;28;19916;-38
2021/08/03 13:38:34;;;;;;;;;;;26.10;95.00;;;;;;5101222;28;20106;-38
2021/08/03 13:41:01;;;;;;;;;;;26.10;95.00;;;;;;5101243;28;19920;-37
2021/08/03 13:43:27;;;;;;;;;;;26.10;95.10;;;;;;5100963;28;19909;-38
2021/08/03 13:45:53;;;;;;;;;;;26.00;95.00;;;;;;5101495;28;19953;-41
2021/08/03 13:48:19;;;;;;;;;;;26.00;95.20;;;;;;5100844;28;19908;-37
2021/08/03 13:50:45;;;;;;;;;;;26.00;95.20;;;;;;5101402;28;19908;-37
2021/08/03 13:53:11;;;;;;;;;;;26.00;95.20;;;;;;5100723;28;19908;-38
2021/08/03 13:55:37;;;;;;;;;;;26.00;95.20;;;;;;5094270;28;20207;-40
2021/08/03 13:58:04;;;;;;;;;;;26.00;95.10;;;;;;5080514;28;19909;-38
2021/08/03 14:00:30;;;;;;;;;;;26.00;95.10;;;;;;5080591;28;19972;-37
2021/08/03 14:02:56;;;;;;;;;;;26.00;95.20;;;;;;5080694;28;19946;-37
2021/08/03 14:05:22;;;;;;;;;;;26.00;95.30;;;;;;5080498;28;19931;-38
2021/08/03 14:07:48;;;;;;;;;;;26.00;95.20;;;;;;5066447;28;19908;-38
2021/08/03 14:22:06;;;;;;;;;;;26.00;95.00;;;;;;5101848;27;20242;-44
2021/08/03 14:24:33;;;;;;;;;;;26.30;95.00;;;;;;5101763;28;19908;-43
2021/08/03 14:26:59;;;;;;;;;;;26.30;95.10;;;;;;5102044;28;19923;-44
2021/08/03 14:29:25;;;;;;;;;;;26.30;95.00;;;;;;5101654;28;19942;-47
2021/08/03 14:31:51;;;;;;;;;;;26.30;95.00;;;;;;5102083;28;19908;-43
2021/08/03 14:34:18;;;;;;;;;;;26.30;95.00;;;;;;5101292;28;19909;-46
2021/08/03 14:36:44;;;;;;;;;;;26.30;95.00;;;;;;5101862;28;20189;-44
2021/08/03 14:39:10;;;;;;;;;;;26.40;94.80;;;;;;5101710;28;19947;-45
2021/08/03 14:41:38;;;;;;;;;;;26.40;94.80;;;;;;5101594;28;19908;-44
2021/08/03 14:44:07;;;;;;;;;;;26.40;94.70;;;;;;5101388;28;20073;-43
2021/08/03 14:46:34;;;;;;;;;;;26.40;94.60;;;;;;5101114;28;19908;-44
2021/08/03 14:49:00;;;;;;;;;;;26.40;94.40;;;;;;5101096;28;19919;-43
2021/08/03 14:51:26;;;;;;;;;;;26.50;94.60;;;;;;5101718;28;19912;-46
2021/08/03 14:53:52;;;;;;;;;;;26.50;94.20;;;;;;5101272;28;19915;-41
2021/08/03 14:56:19;;;;;;;;;;;26.50;94.20;;;;;;5101560;28;19909;-47
2021/08/03 14:58:45;;;;;;;;;;;26.60;94.30;;;;;;5101228;28;19908;-50
2021/08/03 15:01:11;;;;;;;;;;;26.60;94.30;;;;;;5101425;28;19971;-48
2021/08/03 15:03:37;;;;;;;;;;;26.60;94.50;;;;;;5100887;28;19912;-48
2021/08/03 15:06:03;;;;;;;;;;;26.60;94.40;;;;;;5100790;28;19909;-49
2021/08/03 15:08:29;;;;;;;;;;;26.70;94.40;;;;;;5099735;28;20212;-47